createdAt,value
2023-03-17T00:01:55.895Z,97.40
2023-03-17T00:04:25.734Z,97.40
2023-03-17T00:06:54.297Z,97.40
2023-03-17T00:09:23.253Z,97.40
2023-03-17T00:11:51.903Z,97.40
2023-03-17T00:14:20.671Z,97.40
2023-03-17T00:16:51.465Z,97.40
2023-03-17T00:19:29.798Z,97.40
2023-03-17T00:21:59.042Z,97.40
2023-03-17T00:24:27.438Z,97.40
2023-03-17T00:26:55.641Z,97.40
2023-03-17T00:29:24.175Z,97.40
2023-03-17T00:31:52.602Z,97.40
2023-03-17T00:34:25.130Z,97.40
2023-03-17T00:36:53.566Z,97.40
2023-03-17T00:39:24.185Z,97.40
2023-03-17T00:41:54.972Z,97.40
2023-03-17T00:44:24.067Z,97.40
2023-03-17T00:46:52.433Z,97.40
2023-03-17T00:49:24.706Z,97.40
2023-03-17T00:51:54.262Z,97.40
2023-03-17T00:54:23.499Z,97.40
2023-03-17T00:56:53.059Z,97.40
2023-03-17T00:59:27.646Z,97.40
2023-03-17T01:01:56.374Z,97.40
2023-03-17T01:04:26.107Z,97.40
2023-03-17T01:06:54.469Z,97.40
2023-03-17T01:09:27.454Z,97.40
2023-03-17T01:11:56.190Z,97.40
2023-03-17T01:14:25.720Z,97.40
2023-03-17T01:16:55.079Z,97.40
2023-03-17T01:19:25.386Z,97.40
2023-03-17T01:21:53.556Z,97.40
2023-03-17T01:24:21.859Z,97.40
2023-03-17T01:26:50.846Z,97.40
2023-03-17T01:29:19.137Z,97.40
2023-03-17T01:31:47.803Z,97.40
2023-03-17T01:34:16.493Z,97.40
2023-03-17T01:36:46.672Z,97.40
2023-03-17T01:39:15.652Z,97.40
2023-03-17T01:41:45.581Z,97.40
2023-03-17T01:44:18.392Z,97.40
2023-03-17T01:46:47.395Z,97.40
2023-03-17T01:49:29.979Z,97.40
2023-03-17T01:52:06.248Z,97.40
2023-03-17T01:54:40.981Z,97.40
2023-03-17T01:57:16.391Z,97.40
2023-03-17T01:59:49.453Z,97.40
2023-03-17T02:02:24.620Z,97.40
2023-03-17T02:04:54.129Z,97.40
2023-03-17T02:07:26.578Z,97.40
2023-03-17T02:09:55.847Z,97.40
2023-03-17T02:12:25.983Z,97.40
2023-03-17T02:14:54.591Z,97.40
2023-03-17T02:17:27.213Z,97.40
2023-03-17T02:19:56.239Z,97.40
2023-03-17T02:22:26.083Z,97.40
2023-03-17T02:24:58.360Z,97.40
2023-03-17T02:27:34.718Z,97.40
2023-03-17T02:30:03.131Z,97.40
2023-03-17T02:32:31.474Z,97.40
2023-03-17T02:34:59.632Z,97.40
2023-03-17T02:37:29.299Z,97.40
2023-03-17T02:39:57.861Z,97.40
2023-03-17T02:42:26.346Z,97.40
2023-03-17T02:44:54.877Z,97.40
2023-03-17T02:47:23.119Z,97.40
2023-03-17T02:49:51.649Z,97.40
2023-03-17T02:52:19.974Z,97.40
2023-03-17T02:54:49.900Z,97.40
2023-03-17T02:57:18.081Z,97.40
2023-03-17T02:59:46.399Z,97.40
2023-03-17T03:02:15.404Z,97.40
2023-03-17T03:04:44.132Z,97.40
2023-03-17T03:07:12.586Z,97.40
2023-03-17T03:09:41.975Z,97.40
2023-03-17T03:12:13.871Z,97.40
2023-03-17T03:14:42.477Z,97.40
2023-03-17T03:17:11.055Z,97.40
2023-03-17T03:19:39.514Z,97.40
2023-03-17T03:22:08.342Z,97.40
2023-03-17T03:24:36.789Z,97.40
2023-03-17T03:27:05.211Z,97.40
2023-03-17T03:29:34.752Z,97.40
2023-03-17T03:32:03.107Z,97.40
2023-03-17T03:34:31.874Z,97.40
2023-03-17T03:37:00.050Z,97.40
2023-03-17T03:39:28.303Z,97.40
2023-03-17T03:41:58.154Z,97.40
2023-03-17T03:44:26.408Z,97.40
2023-03-17T03:46:55.865Z,97.40
2023-03-17T03:49:24.432Z,97.40
2023-03-17T03:51:52.656Z,97.40
2023-03-17T03:54:20.798Z,97.40
2023-03-17T03:56:48.945Z,97.40
2023-03-17T03:59:17.457Z,97.40
2023-03-17T04:01:45.673Z,97.40
2023-03-17T04:04:15.460Z,97.40
2023-03-17T04:06:43.671Z,97.40
2023-03-17T04:09:12.622Z,97.40
2023-03-17T04:11:40.832Z,97.40
2023-03-17T04:14:09.020Z,97.40
2023-03-17T04:16:37.266Z,97.40
2023-03-17T04:19:05.426Z,97.40
2023-03-17T04:21:34.945Z,97.40
2023-03-17T04:24:05.156Z,97.40
2023-03-17T04:26:33.789Z,97.40
2023-03-17T04:29:01.994Z,97.40
2023-03-17T04:31:30.745Z,97.40
2023-03-17T04:33:58.843Z,97.40
2023-03-17T04:36:27.044Z,97.40
2023-03-17T04:38:56.492Z,97.40
2023-03-17T04:41:24.768Z,97.40
2023-03-17T04:43:52.942Z,97.40
2023-03-17T04:46:21.351Z,97.40
2023-03-17T04:48:49.528Z,97.40
2023-03-17T04:51:18.056Z,97.40
2023-03-17T04:53:46.225Z,97.40
2023-03-17T04:56:16.128Z,97.40
2023-03-17T04:58:44.315Z,97.40
2023-03-17T05:01:12.621Z,97.40
2023-03-17T05:03:40.995Z,97.40
2023-03-17T05:06:09.387Z,97.40
2023-03-17T05:08:37.883Z,97.40
2023-03-17T05:11:07.266Z,97.40
2023-03-17T05:13:36.734Z,97.40
2023-03-17T05:16:05.913Z,97.40
2023-03-17T05:18:34.410Z,97.40
2023-03-17T05:21:02.724Z,97.40
2023-03-17T05:23:31.058Z,97.40
2023-03-17T05:25:59.314Z,97.40
2023-03-17T05:28:28.220Z,97.40
2023-03-17T05:30:58.261Z,97.40
2023-03-17T05:33:27.767Z,97.40
2023-03-17T05:35:56.139Z,97.40
2023-03-17T05:38:25.070Z,97.40
2023-03-17T05:40:53.687Z,97.40
2023-03-17T05:43:22.100Z,97.40
2023-03-17T05:45:50.992Z,97.40
2023-03-17T05:48:21.094Z,97.40
2023-03-17T05:50:49.564Z,97.40
2023-03-17T05:53:18.697Z,97.40
2023-03-17T05:55:46.970Z,97.40
2023-03-17T05:58:15.721Z,97.40
2023-03-17T06:00:44.729Z,97.40
2023-03-17T06:03:12.946Z,97.40
2023-03-17T06:05:42.637Z,97.40
2023-03-17T06:08:10.814Z,97.40
2023-03-17T06:10:39.011Z,97.40
2023-03-17T06:13:07.349Z,97.40
2023-03-17T06:15:36.864Z,97.40
2023-03-17T06:18:06.145Z,97.40
2023-03-17T06:20:34.964Z,97.40
2023-03-17T06:23:05.968Z,97.40
2023-03-17T06:25:35.106Z,97.40
2023-03-17T06:28:04.079Z,97.40
2023-03-17T06:30:33.779Z,97.40
2023-03-17T06:33:02.522Z,97.40
2023-03-17T06:35:31.801Z,97.40
2023-03-17T06:38:00.827Z,97.40
2023-03-17T06:40:31.018Z,97.40
2023-03-17T06:42:59.568Z,97.40
2023-03-17T06:45:28.135Z,97.40
2023-03-17T06:47:57.015Z,97.40
2023-03-17T06:50:25.513Z,97.40
2023-03-17T06:52:53.929Z,97.40
2023-03-17T06:55:22.438Z,97.40
2023-03-17T06:57:52.395Z,97.40
2023-03-17T07:00:22.496Z,97.40
2023-03-17T07:02:51.232Z,97.40
2023-03-17T07:05:19.538Z,97.40
2023-03-17T07:07:47.746Z,96.00
2023-03-17T07:10:17.198Z,95.70
2023-03-17T07:12:45.727Z,94.20
2023-03-17T07:15:15.587Z,93.40
2023-03-17T07:17:43.981Z,93.60
2023-03-17T07:20:13.848Z,94.00
2023-03-17T07:22:42.430Z,93.90
2023-03-17T07:25:11.496Z,93.30
2023-03-17T07:27:40.269Z,91.80
2023-03-17T07:30:10.898Z,92.00
2023-03-17T07:32:40.471Z,90.90
2023-03-17T07:35:08.985Z,85.60
2023-03-17T07:37:37.148Z,83.80
2023-03-17T07:40:09.027Z,83.40
2023-03-17T07:42:37.401Z,79.30
2023-03-17T07:45:07.938Z,81.20
2023-03-17T07:47:36.428Z,80.80
2023-03-17T07:50:07.271Z,81.50
2023-03-17T07:52:35.433Z,80.00
2023-03-17T07:55:03.736Z,79.70
2023-03-17T07:57:31.923Z,81.40
2023-03-17T08:00:01.210Z,82.70
2023-03-17T08:02:39.949Z,81.70
2023-03-17T08:05:11.429Z,81.00
2023-03-17T08:07:40.449Z,81.00
2023-03-17T08:10:11.576Z,79.70
2023-03-17T08:12:40.626Z,77.80
2023-03-17T08:15:10.347Z,79.10
2023-03-17T08:17:39.705Z,76.50
2023-03-17T08:20:11.541Z,73.30
2023-03-17T08:22:39.700Z,73.50
2023-03-17T08:25:09.540Z,71.80
2023-03-17T08:27:37.704Z,70.90
2023-03-17T08:30:07.871Z,69.40
2023-03-17T08:32:36.607Z,62.70
2023-03-17T08:35:06.385Z,63.10
2023-03-17T08:37:36.110Z,64.80
2023-03-17T08:40:05.372Z,60.70
2023-03-17T08:42:33.496Z,63.80
2023-03-17T08:45:01.757Z,63.70
2023-03-17T08:47:29.942Z,60.30
2023-03-17T08:50:00.188Z,58.60
2023-03-17T08:52:28.781Z,58.40
2023-03-17T08:54:58.320Z,56.60
2023-03-17T08:57:26.889Z,54.30
2023-03-17T08:59:55.857Z,49.30
2023-03-17T09:02:24.064Z,48.50
2023-03-17T09:04:52.792Z,46.50
2023-03-17T09:07:21.712Z,47.60
2023-03-17T09:09:49.866Z,46.40
2023-03-17T09:12:19.443Z,47.60
2023-03-17T09:14:49.401Z,44.70
2023-03-17T09:17:17.961Z,44.70
2023-03-17T09:19:46.945Z,42.70
2023-03-17T09:22:17.538Z,39.40
2023-03-17T09:24:46.598Z,36.00
2023-03-17T09:27:14.985Z,33.40
2023-03-17T09:29:44.540Z,33.40
2023-03-17T09:32:12.757Z,32.40
2023-03-17T09:34:41.966Z,30.10
2023-03-17T09:37:11.034Z,31.20
2023-03-17T09:39:39.333Z,32.80
2023-03-17T09:42:24.351Z,29.80
2023-03-17T09:45:12.319Z,29.90
2023-03-17T09:47:56.463Z,30.60
2023-03-17T09:50:30.234Z,28.70
2023-03-17T09:53:03.447Z,28.60
2023-03-17T09:55:34.134Z,25.50
2023-03-17T09:58:03.489Z,26.70
2023-03-17T10:00:34.711Z,28.70
2023-03-17T10:03:03.493Z,29.30
2023-03-17T10:05:34.674Z,27.10
2023-03-17T10:08:28.966Z,29.60
2023-03-17T10:11:09.410Z,26.40
2023-03-17T10:13:51.694Z,24.80
2023-03-17T10:16:34.653Z,27.80
2023-03-17T10:19:07.592Z,26.00
2023-03-17T10:21:41.013Z,27.90
2023-03-17T10:24:12.230Z,28.40
2023-03-17T10:26:45.902Z,27.50
2023-03-17T10:29:17.755Z,27.30
2023-03-17T10:31:47.606Z,25.00
2023-03-17T10:34:18.030Z,27.30
2023-03-17T10:36:50.965Z,25.70
2023-03-17T10:39:21.676Z,25.60
2023-03-17T10:41:56.977Z,26.50
2023-03-17T10:44:43.923Z,26.20
2023-03-17T10:47:31.548Z,24.40
2023-03-17T10:50:05.618Z,26.10
2023-03-17T10:52:40.692Z,25.30
2023-03-17T10:55:14.308Z,27.10
2023-03-17T10:57:52.684Z,27.30
2023-03-17T11:00:23.338Z,27.40
2023-03-17T11:02:58.862Z,28.40
2023-03-17T11:05:29.618Z,28.60
2023-03-17T11:08:12.626Z,29.00
2023-03-17T11:10:42.577Z,28.10
2023-03-17T11:13:11.343Z,26.70
2023-03-17T11:15:44.333Z,28.00
2023-03-17T11:18:21.392Z,27.00
2023-03-17T11:20:55.489Z,27.60
2023-03-17T11:23:38.613Z,28.00
2023-03-17T11:26:28.854Z,28.20
2023-03-17T11:29:24.401Z,27.10
2023-03-17T11:32:01.400Z,26.90
2023-03-17T11:34:48.953Z,27.60
2023-03-17T11:37:31.464Z,28.30
2023-03-17T11:40:08.738Z,26.20
2023-03-17T11:42:45.743Z,27.60
2023-03-17T11:45:25.088Z,28.60
2023-03-17T11:48:20.789Z,28.30
2023-03-17T11:50:57.588Z,29.30
2023-03-17T11:53:47.260Z,29.90
2023-03-17T11:56:20.911Z,29.90
2023-03-17T11:58:54.976Z,29.10
2023-03-17T12:01:28.238Z,30.40
2023-03-17T12:04:10.674Z,29.20
2023-03-17T12:06:47.416Z,28.50
2023-03-17T12:09:26.912Z,30.10
2023-03-17T12:11:57.010Z,31.60
2023-03-17T12:14:31.074Z,31.30
2023-03-17T12:17:07.481Z,30.20
2023-03-17T12:19:43.272Z,29.70
2023-03-17T12:22:22.647Z,28.00
2023-03-17T12:25:04.344Z,28.40
2023-03-17T12:27:38.044Z,28.10
2023-03-17T12:30:18.927Z,29.40
2023-03-17T12:32:55.201Z,29.10
2023-03-17T12:35:29.746Z,29.90
2023-03-17T12:38:02.832Z,32.20
2023-03-17T12:40:36.514Z,30.70
2023-03-17T12:43:27.359Z,32.50
2023-03-17T12:46:14.296Z,32.40
2023-03-17T12:49:14.276Z,31.90
2023-03-17T12:52:23.301Z,32.20
2023-03-17T12:54:53.736Z,30.60
2023-03-17T12:57:28.122Z,29.90
2023-03-17T13:00:05.549Z,31.90
2023-03-17T13:02:39.516Z,31.90
2023-03-17T13:05:11.757Z,30.60
2023-03-17T13:07:48.145Z,28.30
2023-03-17T13:10:38.267Z,31.80
2023-03-17T13:13:23.496Z,32.10
2023-03-17T13:16:01.408Z,31.80
2023-03-17T13:18:53.846Z,30.90
2023-03-17T13:21:26.353Z,33.70
2023-03-17T13:24:21.149Z,33.40
2023-03-17T13:27:01.677Z,33.30
2023-03-17T13:29:47.188Z,33.60
2023-03-17T13:32:35.890Z,33.70
2023-03-17T13:35:42.944Z,33.30
2023-03-17T13:38:52.522Z,34.80
2023-03-17T13:42:05.584Z,33.70
2023-03-17T13:45:05.494Z,35.30
2023-03-17T13:47:35.916Z,34.50
2023-03-17T13:50:09.624Z,34.40
2023-03-17T13:52:44.560Z,34.70
2023-03-17T13:55:40.936Z,37.30
2023-03-17T13:58:34.257Z,35.30
2023-03-17T14:01:09.038Z,37.90
2023-03-17T14:03:43.782Z,33.10
2023-03-17T14:06:14.352Z,36.90
2023-03-17T14:08:49.093Z,38.20
2023-03-17T14:11:33.592Z,39.70
2023-03-17T14:14:32.654Z,37.70
2023-03-17T14:17:10.835Z,37.90
2023-03-17T14:19:41.670Z,39.20
2023-03-17T14:22:24.635Z,39.80
2023-03-17T14:24:54.740Z,38.00
2023-03-17T14:27:25.063Z,40.30
2023-03-17T14:29:54.791Z,40.50
2023-03-17T14:32:26.474Z,42.10
2023-03-17T14:35:00.308Z,41.50
2023-03-17T14:37:29.609Z,41.70
2023-03-17T14:40:00.125Z,42.00
2023-03-17T14:42:30.664Z,40.50
2023-03-17T14:45:06.505Z,41.40
2023-03-17T14:47:41.141Z,40.90
2023-03-17T14:50:32.222Z,44.00
2023-03-17T14:53:01.659Z,43.20
2023-03-17T14:55:39.689Z,41.50
2023-03-17T14:58:12.033Z,42.40
2023-03-17T15:00:46.850Z,40.10
2023-03-17T15:03:22.255Z,42.70
2023-03-17T15:05:51.419Z,41.40
2023-03-17T15:08:42.635Z,42.60
2023-03-17T15:11:24.302Z,43.60
2023-03-17T15:13:57.934Z,43.60
2023-03-17T15:16:31.119Z,43.50
2023-03-17T15:19:07.551Z,42.90
2023-03-17T15:21:40.896Z,43.80
2023-03-17T15:24:26.950Z,45.30
2023-03-17T15:27:07.253Z,44.60
2023-03-17T15:29:35.750Z,44.60
2023-03-17T15:32:14.161Z,45.00
2023-03-17T15:34:42.886Z,46.80
2023-03-17T15:37:20.459Z,48.70
2023-03-17T15:39:49.645Z,49.90
2023-03-17T15:42:20.390Z,51.90
2023-03-17T15:44:48.696Z,48.50
2023-03-17T15:47:20.893Z,51.60
2023-03-17T15:49:50.898Z,52.50
2023-03-17T15:52:22.951Z,53.10
2023-03-17T15:57:29.544Z,52.30
2023-03-17T15:59:57.760Z,50.80
2023-03-17T16:02:34.015Z,52.20
2023-03-17T16:05:05.958Z,54.30
2023-03-17T16:07:34.149Z,53.10
2023-03-17T16:10:02.333Z,50.80
2023-03-17T16:12:30.640Z,48.50
2023-03-17T16:14:58.782Z,48.20
2023-03-17T16:17:32.160Z,47.50
2023-03-17T16:20:01.192Z,48.20
2023-03-17T16:22:41.833Z,48.70
2023-03-17T16:25:24.745Z,48.70
2023-03-17T16:27:54.220Z,48.10
2023-03-17T16:30:25.817Z,47.80
2023-03-17T16:32:59.143Z,48.40
2023-03-17T16:35:27.649Z,50.30
2023-03-17T16:37:56.224Z,53.50
2023-03-17T16:40:27.711Z,51.40
2023-03-17T16:42:55.986Z,52.30
2023-03-17T16:45:29.776Z,53.40
2023-03-17T16:48:01.369Z,54.30
2023-03-17T16:50:32.594Z,55.50
2023-03-17T16:53:03.898Z,56.00
2023-03-17T16:55:32.458Z,57.00
2023-03-17T16:58:04.998Z,57.80
2023-03-17T17:00:33.833Z,58.10
2023-03-17T17:03:05.941Z,59.00
2023-03-17T17:05:34.179Z,59.60
2023-03-17T17:08:02.517Z,60.10
2023-03-17T17:10:34.116Z,60.50
2023-03-17T17:13:02.847Z,61.00
2023-03-17T17:15:31.776Z,61.80
2023-03-17T17:18:06.095Z,62.50
2023-03-17T17:20:37.648Z,62.70
2023-03-17T17:23:07.424Z,63.30
2023-03-17T17:25:35.642Z,63.30
2023-03-17T17:28:04.150Z,63.30
2023-03-17T17:30:33.325Z,63.50
2023-03-17T17:33:03.893Z,63.50
2023-03-17T17:35:33.843Z,62.90
2023-03-17T17:38:02.345Z,62.90
2023-03-17T17:40:32.164Z,63.30
2023-03-17T17:43:00.684Z,63.70
2023-03-17T17:45:28.827Z,66.30
2023-03-17T17:47:57.183Z,67.60
2023-03-17T17:50:29.882Z,67.60
2023-03-17T17:53:04.904Z,67.00
2023-03-17T17:55:34.525Z,67.20
2023-03-17T17:58:02.732Z,67.90
2023-03-17T18:00:32.642Z,68.50
2023-03-17T18:03:01.053Z,70.40
2023-03-17T18:05:32.162Z,70.70
2023-03-17T18:08:02.262Z,72.20
2023-03-17T18:10:31.718Z,73.00
2023-03-17T18:13:00.431Z,73.20
2023-03-17T18:15:29.097Z,74.60
2023-03-17T18:17:57.705Z,75.80
2023-03-17T18:20:27.119Z,73.90
2023-03-17T18:22:56.819Z,73.70
2023-03-17T18:25:27.087Z,75.20
2023-03-17T18:27:56.296Z,78.60
2023-03-17T18:30:27.080Z,81.50
2023-03-17T18:33:01.495Z,82.10
2023-03-17T18:35:30.676Z,84.00
2023-03-17T18:38:01.505Z,84.90
2023-03-17T18:40:29.929Z,85.10
2023-03-17T18:42:58.420Z,84.90
2023-03-17T18:45:26.629Z,86.00
2023-03-17T18:47:54.832Z,86.00
2023-03-17T18:50:23.161Z,86.20
2023-03-17T18:52:51.995Z,86.80
2023-03-17T18:55:21.703Z,88.80
2023-03-17T18:57:49.887Z,88.20
2023-03-17T19:00:19.308Z,87.70
2023-03-17T19:02:47.886Z,89.70
2023-03-17T19:05:16.337Z,89.90
2023-03-17T19:07:44.709Z,89.20
2023-03-17T19:10:14.112Z,89.00
2023-03-17T19:12:45.391Z,89.60
2023-03-17T19:15:15.195Z,89.60
2023-03-17T19:17:43.408Z,91.20
2023-03-17T19:20:13.300Z,92.50
2023-03-17T19:22:41.740Z,92.10
2023-03-17T19:25:11.242Z,92.40
2023-03-17T19:27:39.944Z,92.40
2023-03-17T19:30:11.702Z,93.30
2023-03-17T19:32:40.132Z,96.00
2023-03-17T19:35:09.671Z,95.90
2023-03-17T19:37:38.128Z,95.60
2023-03-17T19:40:09.714Z,95.00
2023-03-17T19:42:38.357Z,95.50
2023-03-17T19:45:09.614Z,95.70
2023-03-17T19:47:37.904Z,96.30
2023-03-17T19:50:07.649Z,95.70
2023-03-17T19:52:35.808Z,95.80
2023-03-17T19:55:05.925Z,96.10
2023-03-17T19:57:35.589Z,95.70
2023-03-17T20:00:04.034Z,95.20
2023-03-17T20:02:39.703Z,96.70
2023-03-17T20:05:09.518Z,97.40
2023-03-17T20:07:37.995Z,97.40
2023-03-17T20:10:08.053Z,97.40
2023-03-17T20:12:38.077Z,97.40
2023-03-17T20:15:08.553Z,97.40
2023-03-17T20:17:37.381Z,97.40
2023-03-17T20:20:10.729Z,97.40
2023-03-17T20:22:40.375Z,97.40
2023-03-17T20:25:10.305Z,97.40
2023-03-17T20:27:38.916Z,97.40
2023-03-17T20:30:09.493Z,97.40
2023-03-17T20:32:38.092Z,97.40
2023-03-17T20:35:09.070Z,97.40
2023-03-17T20:37:38.698Z,97.40
2023-03-17T20:40:09.890Z,97.40
2023-03-17T20:42:38.156Z,97.40
2023-03-17T20:45:07.591Z,97.40
2023-03-17T20:47:36.132Z,97.40
2023-03-17T20:50:04.568Z,97.40
2023-03-17T20:52:34.080Z,97.40
2023-03-17T20:55:02.553Z,97.40
2023-03-17T20:57:30.743Z,97.40
2023-03-17T20:59:59.092Z,97.40
2023-03-17T21:02:27.359Z,97.40
2023-03-17T21:04:55.719Z,97.40
2023-03-17T21:07:24.138Z,97.40
2023-03-17T21:09:56.423Z,97.40
2023-03-17T21:12:25.375Z,97.40
2023-03-17T21:14:53.484Z,97.40
2023-03-17T21:17:22.745Z,97.40
2023-03-17T21:19:51.130Z,97.40
2023-03-17T21:22:19.437Z,97.40
2023-03-17T21:24:47.743Z,97.40
2023-03-17T21:27:17.847Z,97.40
2023-03-17T21:29:48.011Z,97.40
2023-03-17T21:32:16.585Z,97.40
2023-03-17T21:34:45.002Z,97.40
2023-03-17T21:37:13.113Z,97.40
2023-03-17T21:39:41.239Z,97.40
2023-03-17T21:42:10.522Z,97.40
2023-03-17T21:44:42.115Z,97.40
2023-03-17T21:47:10.344Z,97.40
2023-03-17T21:49:38.923Z,97.40
2023-03-17T21:52:07.107Z,97.40
2023-03-17T21:54:37.061Z,97.40
2023-03-17T21:57:05.808Z,97.40
2023-03-17T21:59:35.691Z,97.40
2023-03-17T22:02:06.532Z,97.40
2023-03-17T22:04:34.669Z,97.40
2023-03-17T22:07:04.399Z,97.40
2023-03-17T22:09:32.625Z,97.40
2023-03-17T22:12:00.800Z,97.40
2023-03-17T22:14:28.989Z,97.40
2023-03-17T22:16:57.338Z,97.40
2023-03-17T22:19:27.130Z,97.40
2023-03-17T22:21:55.889Z,97.40
2023-03-17T22:24:25.417Z,97.40
2023-03-17T22:26:53.604Z,97.40
2023-03-17T22:29:21.754Z,97.40
2023-03-17T22:31:50.097Z,97.40
2023-03-17T22:34:18.315Z,97.40
2023-03-17T22:36:47.799Z,97.40
2023-03-17T22:39:16.188Z,97.40
2023-03-17T22:41:44.997Z,97.40
2023-03-17T22:44:13.195Z,97.40
2023-03-17T22:46:41.794Z,97.40
2023-03-17T22:49:11.278Z,97.40
2023-03-17T22:51:41.153Z,97.40
2023-03-17T22:54:12.691Z,97.40
2023-03-17T22:56:40.911Z,97.40
2023-03-17T22:59:09.173Z,97.40
2023-03-17T23:01:37.522Z,97.40
2023-03-17T23:04:05.842Z,97.40
2023-03-17T23:06:35.120Z,97.40
2023-03-17T23:09:03.282Z,97.40
2023-03-17T23:11:32.840Z,97.40
2023-03-17T23:14:00.947Z,97.40
2023-03-17T23:16:29.206Z,97.40
2023-03-17T23:18:58.078Z,97.40
2023-03-17T23:21:31.745Z,97.40
2023-03-17T23:24:00.553Z,97.40
2023-03-17T23:26:30.019Z,97.40
2023-03-17T23:28:59.666Z,97.40
2023-03-17T23:31:27.945Z,97.40
2023-03-17T23:33:56.716Z,97.40
2023-03-17T23:36:25.057Z,97.40
2023-03-17T23:38:53.438Z,97.40
2023-03-17T23:41:22.654Z,97.40
2023-03-17T23:43:51.007Z,97.40
2023-03-17T23:46:20.996Z,97.40
2023-03-17T23:48:50.384Z,97.40
2023-03-17T23:51:18.812Z,97.40
2023-03-17T23:53:48.043Z,97.40
2023-03-17T23:56:16.235Z,97.40
2023-03-17T23:58:44.645Z,97.40
